Cobleskill, New York
Current Conditions -  °F | °C
As of 1:55 PM on Thursday 30 Oct 2014 (Local Time) from KNY0 Reporting Station
Overcast Overcast  
Wind Chill: 44°   Ceiling: 4300
Heat Index: 47°   Visibility: 10mi
Dew Point: 35°   Wind: 6mph
Humidity: 63%   Direction: 300°WNW
Pressure: 29.97"   Gusts: NA
Location:  42.68°N, 74.48°W
Report Text: KNY0 301755Z AUTO 30005KT 10SM SCT035 OVC043 08/02 A2997 RMK AO2 T00820016 10095 20045
Loading
Personal Weather Stations






























Interactive Weather Map
Tropical Storm Tracking
New forecast layout! Learn more

10-Day Weather Forecast

Advertisements
Track Severe Weather on mobile